createdAt,value
2022-08-10T00:03:07.576Z,18.56
2022-08-10T00:07:09.124Z,18.57
2022-08-10T00:11:16.574Z,18.54
2022-08-10T00:15:53.016Z,18.51
2022-08-10T00:20:02.502Z,18.44
2022-08-10T00:24:04.707Z,18.33
2022-08-10T00:28:06.188Z,18.42
2022-08-10T00:32:07.795Z,18.04
2022-08-10T00:36:09.441Z,18.29
2022-08-10T00:40:11.730Z,18.30
2022-08-10T00:44:13.267Z,18.36
2022-08-10T00:48:14.728Z,18.48
2022-08-10T00:52:18.873Z,18.23
2022-08-10T00:56:39.784Z,18.26
2022-08-10T01:00:43.147Z,18.28
2022-08-10T01:05:00.137Z,18.26
2022-08-10T01:09:15.988Z,18.21
2022-08-10T01:13:32.622Z,18.17
2022-08-10T01:17:58.358Z,18.12
2022-08-10T01:22:24.159Z,18.08
2022-08-10T01:26:41.054Z,17.94
2022-08-10T01:30:45.970Z,17.81
2022-08-10T01:34:59.602Z,17.49
2022-08-10T01:39:03.896Z,17.45
2022-08-10T01:43:09.941Z,17.55
2022-08-10T01:47:43.889Z,17.49
2022-08-10T01:51:55.023Z,17.33
2022-08-10T01:55:57.660Z,17.27
2022-08-10T02:00:02.440Z,17.14
2022-08-10T02:04:08.224Z,17.12
2022-08-10T02:08:14.922Z,17.15
2022-08-10T02:12:20.688Z,17.14
2022-08-10T02:16:24.715Z,17.15
2022-08-10T02:20:31.666Z,17.09
2022-08-10T02:24:34.130Z,17.00
2022-08-10T02:28:37.264Z,16.91
2022-08-10T02:32:40.107Z,16.46
2022-08-10T02:36:52.103Z,16.77
2022-08-10T02:45:16.073Z,16.80
2022-08-10T02:45:32.323Z,16.75
2022-08-10T02:49:40.373Z,16.70
2022-08-10T02:53:55.751Z,16.46
2022-08-10T02:58:15.298Z,16.57
2022-08-10T03:02:26.326Z,16.57
2022-08-10T03:06:35.536Z,16.43
2022-08-10T03:10:41.222Z,16.43
2022-08-10T03:14:44.156Z,16.36
2022-08-10T03:18:47.755Z,16.25
2022-08-10T03:22:53.035Z,16.16
2022-08-10T03:26:55.773Z,16.05
2022-08-10T03:30:59.240Z,15.98
2022-08-10T03:35:01.334Z,15.74
2022-08-10T03:39:02.909Z,15.87
2022-08-10T03:43:07.867Z,15.88
2022-08-10T03:47:16.156Z,15.82
2022-08-10T03:51:19.902Z,15.78
2022-08-10T03:56:28.878Z,15.63
2022-08-10T03:59:44.869Z,15.76
2022-08-10T04:03:46.436Z,15.66
2022-08-10T04:07:47.986Z,15.62
2022-08-10T04:11:49.474Z,15.52
2022-08-10T04:15:51.013Z,15.45
2022-08-10T04:19:56.508Z,15.42
2022-08-10T04:24:01.502Z,15.33
2022-08-10T04:28:04.008Z,15.35
2022-08-10T04:32:07.886Z,15.31
2022-08-10T04:36:11.387Z,15.29
2022-08-10T04:40:29.591Z,15.68
2022-08-10T04:44:32.453Z,15.55
2022-08-10T04:48:42.450Z,15.48
2022-08-10T04:52:54.790Z,15.90
2022-08-10T04:56:56.287Z,16.23
2022-08-10T05:00:57.773Z,16.33
2022-08-10T05:04:59.343Z,16.47
2022-08-10T05:09:00.966Z,16.64
2022-08-10T05:13:02.431Z,16.84
2022-08-10T05:17:03.982Z,16.75
2022-08-10T05:21:05.617Z,16.96
2022-08-10T05:25:18.956Z,17.09
2022-08-10T05:29:20.520Z,17.08
2022-08-10T05:33:21.994Z,17.11
2022-08-10T05:38:12.414Z,17.30
2022-08-10T05:41:52.729Z,17.58
2022-08-10T05:46:16.854Z,17.52
2022-08-10T05:50:18.358Z,17.65
2022-08-10T05:54:20.138Z,17.81
2022-08-10T05:58:21.918Z,18.23
2022-08-10T06:02:36.465Z,18.35
2022-08-10T06:06:38.939Z,18.71
2022-08-10T06:12:21.865Z,18.52
2022-08-10T06:15:05.963Z,18.65
2022-08-10T06:19:14.935Z,18.79
2022-08-10T06:23:17.425Z,18.85
2022-08-10T06:27:19.019Z,18.98
2022-08-10T06:31:48.984Z,19.13
2022-08-10T06:35:53.859Z,19.35
2022-08-10T06:39:55.738Z,19.50
2022-08-10T06:44:01.733Z,19.66
2022-08-10T06:48:08.973Z,19.73
2022-08-10T06:52:16.333Z,19.97
2022-08-10T06:56:36.635Z,19.62
2022-08-10T07:00:43.978Z,19.90
2022-08-10T07:04:52.350Z,20.00
2022-08-10T07:08:55.215Z,20.31
2022-08-10T07:12:59.654Z,20.18
2022-08-10T07:17:02.846Z,20.45
2022-08-10T07:21:07.099Z,20.62
2022-08-10T07:25:11.531Z,20.79
2022-08-10T07:29:26.422Z,20.89
2022-08-10T07:33:38.568Z,20.97
2022-08-10T07:37:41.288Z,21.17
2022-08-10T07:41:47.023Z,21.30
2022-08-10T07:45:49.600Z,21.22
2022-08-10T07:49:52.979Z,21.51
2022-08-10T07:53:56.686Z,21.65
2022-08-10T07:58:00.217Z,21.62
2022-08-10T08:02:03.527Z,21.59
2022-08-10T08:06:11.958Z,21.99
2022-08-10T08:10:16.423Z,22.17
2022-08-10T08:14:19.814Z,22.32
2022-08-10T08:18:25.504Z,22.37
2022-08-10T08:24:08.091Z,22.14
2022-08-10T08:26:52.092Z,22.70
2022-08-10T08:30:54.871Z,23.14
2022-08-10T08:35:07.298Z,23.32
2022-08-10T08:39:10.382Z,23.46
2022-08-10T08:43:41.245Z,23.81
2022-08-10T08:48:05.291Z,23.56
2022-08-10T08:52:24.864Z,23.86
2022-08-10T08:56:50.513Z,23.94
2022-08-10T09:01:03.356Z,24.49
2022-08-10T09:05:28.299Z,24.52
2022-08-10T09:09:44.743Z,24.67
2022-08-10T09:14:27.752Z,24.80
2022-08-10T09:18:40.152Z,25.08
2022-08-10T09:22:57.933Z,25.88
2022-08-10T09:27:07.496Z,25.65
2022-08-10T09:31:22.007Z,25.93
2022-08-10T09:36:24.752Z,26.32
2022-08-10T09:40:59.007Z,26.07
2022-08-10T09:44:58.384Z,25.70
2022-08-10T09:49:18.256Z,26.10
2022-08-10T09:53:42.911Z,26.14
2022-08-10T09:57:58.838Z,26.35
2022-08-10T10:02:06.185Z,26.08
2022-08-10T10:06:16.531Z,26.34
2022-08-10T10:10:30.199Z,27.14
2022-08-10T10:14:59.761Z,27.11
2022-08-10T10:19:17.975Z,27.47
2022-08-10T10:23:40.721Z,28.03
2022-08-10T10:27:49.576Z,27.46
2022-08-10T10:32:18.498Z,27.61
2022-08-10T10:36:22.094Z,27.71
2022-08-10T10:40:27.163Z,27.57
2022-08-10T10:44:43.995Z,27.81
2022-08-10T10:49:14.577Z,28.09
2022-08-10T10:53:28.265Z,28.13
2022-08-10T10:57:58.212Z,28.72
2022-08-10T11:02:20.805Z,27.82
2022-08-10T11:06:39.838Z,28.43
2022-08-10T11:11:02.938Z,29.19
2022-08-10T11:15:10.035Z,28.65
2022-08-10T11:19:19.580Z,28.29
2022-08-10T11:23:42.899Z,27.99
2022-08-10T11:28:00.365Z,29.07
2022-08-10T11:32:09.583Z,29.64
2022-08-10T11:36:40.825Z,30.49
2022-08-10T11:40:57.772Z,30.37
2022-08-10T11:45:27.802Z,30.78
2022-08-10T11:49:37.776Z,30.08
2022-08-10T11:53:51.304Z,30.50
2022-08-10T11:57:58.525Z,30.83
2022-08-10T12:02:01.707Z,30.15
2022-08-10T12:06:06.069Z,30.51
2022-08-10T12:10:13.855Z,29.89
2022-08-10T12:14:22.752Z,29.51
2022-08-10T12:18:59.567Z,29.14
2022-08-10T12:23:19.540Z,30.50
2022-08-10T12:27:28.721Z,30.42
2022-08-10T12:31:38.489Z,30.12
2022-08-10T12:36:24.652Z,30.56
2022-08-10T12:40:36.992Z,30.09
2022-08-10T12:44:44.601Z,31.16
2022-08-10T12:49:00.465Z,31.58
2022-08-10T12:53:11.106Z,30.81
2022-08-10T12:57:16.032Z,31.61
2022-08-10T13:01:19.038Z,31.76
2022-08-10T13:05:21.250Z,30.60
2022-08-10T13:09:25.173Z,30.35
2022-08-10T13:13:33.548Z,29.85
2022-08-10T13:17:42.809Z,31.04
2022-08-10T13:21:45.006Z,30.49
2022-08-10T13:25:50.532Z,30.73
2022-08-10T13:30:03.553Z,30.83
2022-08-10T13:34:39.869Z,32.35
2022-08-10T13:38:32.366Z,31.99
2022-08-10T13:42:37.728Z,31.63
2022-08-10T13:46:42.104Z,29.08
2022-08-10T13:50:46.329Z,30.63
2022-08-10T13:54:48.983Z,31.70
2022-08-10T13:58:53.527Z,30.58
2022-08-10T14:02:57.994Z,32.15
2022-08-10T14:07:01.502Z,31.14
2022-08-10T14:11:11.039Z,30.40
2022-08-10T14:15:15.963Z,32.16
2022-08-10T14:19:27.710Z,32.01
2022-08-10T14:23:29.312Z,32.32
2022-08-10T14:28:01.632Z,32.10
2022-08-10T14:32:01.344Z,31.84
2022-08-10T14:36:20.170Z,32.69
2022-08-10T14:40:32.611Z,33.05
2022-08-10T14:44:45.552Z,33.23
2022-08-10T14:48:48.196Z,34.24
2022-08-10T14:52:51.222Z,33.36
2022-08-10T14:56:53.656Z,32.33
2022-08-10T15:00:56.952Z,33.33
2022-08-10T15:04:58.679Z,34.03
2022-08-10T15:09:04.569Z,34.85
2022-08-10T15:13:33.903Z,35.78
2022-08-10T15:17:41.988Z,34.53
2022-08-10T15:21:45.703Z,36.33
2022-08-10T15:25:57.968Z,33.72
2022-08-10T15:30:00.982Z,35.45
2022-08-10T15:34:23.439Z,34.61
2022-08-10T15:38:40.424Z,33.24
2022-08-10T15:42:58.585Z,33.49
2022-08-10T15:47:04.125Z,34.15
2022-08-10T15:51:17.368Z,33.56
2022-08-10T15:55:44.361Z,32.84
2022-08-10T15:59:50.530Z,33.27
2022-08-10T16:04:36.225Z,34.05
2022-08-10T16:08:55.846Z,32.61
2022-08-10T16:13:59.492Z,32.86
2022-08-10T16:17:30.731Z,32.97
2022-08-10T16:22:35.883Z,31.89
2022-08-10T16:26:40.363Z,31.92
2022-08-10T16:30:49.498Z,31.70
2022-08-10T16:34:52.629Z,32.32
2022-08-10T16:38:57.724Z,33.53
2022-08-10T16:43:03.342Z,34.27
2022-08-10T16:47:06.910Z,32.89
2022-08-10T16:51:14.104Z,33.90
2022-08-10T16:55:24.436Z,34.03
2022-08-10T16:59:43.948Z,33.71
2022-08-10T17:04:07.932Z,33.28
2022-08-10T17:08:13.345Z,34.17
2022-08-10T17:12:19.207Z,33.91
2022-08-10T17:16:21.778Z,33.77
2022-08-10T17:20:30.220Z,34.04
2022-08-10T17:24:37.666Z,33.81
2022-08-10T17:28:47.079Z,33.57
2022-08-10T17:32:54.037Z,32.19
2022-08-10T17:37:02.248Z,32.95
2022-08-10T17:41:13.521Z,32.59
2022-08-10T17:45:48.461Z,32.91
2022-08-10T17:49:45.272Z,31.64
2022-08-10T17:53:49.506Z,31.41
2022-08-10T17:58:01.858Z,30.72
2022-08-10T18:02:08.274Z,29.24
2022-08-10T18:06:15.287Z,29.57
2022-08-10T18:10:20.506Z,29.19
2022-08-10T18:14:22.621Z,28.47
2022-08-10T18:18:27.666Z,28.33
2022-08-10T18:22:29.655Z,27.84
2022-08-10T18:26:38.818Z,27.49
2022-08-10T18:30:48.034Z,27.16
2022-08-10T18:34:52.837Z,26.51
2022-08-10T18:38:56.091Z,26.35
2022-08-10T18:42:58.684Z,26.19
2022-08-10T18:47:02.732Z,25.95
2022-08-10T18:51:06.570Z,25.74
2022-08-10T18:55:24.602Z,25.51
2022-08-10T19:00:07.911Z,25.12
2022-08-10T19:04:16.059Z,24.84
2022-08-10T19:08:55.081Z,24.79
2022-08-10T19:13:04.081Z,24.80
2022-08-10T19:17:20.438Z,24.35
2022-08-10T19:21:21.834Z,24.41
2022-08-10T19:26:39.328Z,24.33
2022-08-10T19:30:13.308Z,24.29
2022-08-10T19:34:27.324Z,24.32
2022-08-10T19:38:34.851Z,24.30
2022-08-10T19:42:44.181Z,24.27
2022-08-10T19:46:59.851Z,23.82
2022-08-10T19:51:10.077Z,23.54
2022-08-10T19:55:41.944Z,22.86
2022-08-10T20:00:19.758Z,22.80
2022-08-10T20:04:33.175Z,23.27
2022-08-10T20:08:41.207Z,23.13
2022-08-10T20:13:12.766Z,23.10
2022-08-10T20:17:52.112Z,23.07
2022-08-10T20:22:01.834Z,23.07
2022-08-10T20:26:22.844Z,22.97
2022-08-10T20:30:31.076Z,22.89
2022-08-10T20:34:56.364Z,22.16
2022-08-10T20:39:17.925Z,22.47
2022-08-10T20:43:34.528Z,22.23
2022-08-10T20:48:11.737Z,22.82
2022-08-10T20:52:14.194Z,22.73
2022-08-10T20:56:35.660Z,22.69
2022-08-10T21:01:12.371Z,22.88
2022-08-10T21:05:31.845Z,22.41
2022-08-10T21:09:45.466Z,22.51
2022-08-10T21:14:06.277Z,22.33
2022-08-10T21:18:28.463Z,22.57
2022-08-10T21:22:40.657Z,22.53
2022-08-10T21:26:44.987Z,22.36
2022-08-10T21:31:11.854Z,22.33
2022-08-10T21:35:20.056Z,22.38
2022-08-10T21:39:46.988Z,22.23
2022-08-10T21:44:23.084Z,21.71
2022-08-10T21:49:06.789Z,21.71
2022-08-10T21:53:50.158Z,21.51
2022-08-10T21:58:20.618Z,21.39
2022-08-10T22:02:50.241Z,21.26
2022-08-10T22:07:13.940Z,21.64
2022-08-10T22:11:42.994Z,21.25
2022-08-10T22:16:12.129Z,21.30
2022-08-10T22:20:46.460Z,21.07
2022-08-10T22:25:39.567Z,21.32
2022-08-10T22:30:06.611Z,21.15
2022-08-10T22:34:47.633Z,21.01
2022-08-10T22:40:11.313Z,21.07
2022-08-10T22:44:21.077Z,20.79
2022-08-10T22:48:41.304Z,20.47
2022-08-10T22:53:03.088Z,20.67
2022-08-10T22:57:24.902Z,20.78
2022-08-10T23:02:07.798Z,20.67
2022-08-10T23:06:14.515Z,20.18
2022-08-10T23:10:19.040Z,20.39
2022-08-10T23:14:33.352Z,20.59
2022-08-10T23:18:57.445Z,20.53
2022-08-10T23:23:07.430Z,20.39
2022-08-10T23:27:39.244Z,20.38
2022-08-10T23:31:59.066Z,20.25
2022-08-10T23:36:29.929Z,20.22
2022-08-10T23:40:22.692Z,20.11
2022-08-10T23:44:25.966Z,20.06
2022-08-10T23:48:37.045Z,20.03
2022-08-10T23:52:40.394Z,19.97
2022-08-10T23:56:48.324Z,19.36
